Time;durP1;ratioP1;P1;durP2;ratioP2;P2;SDS_P1;SDS_P2;PMS_P1;PMS_P2;Temp;Humidity;BMP_temperature;BMP_pressure;BME280_temperature;BME280_humidity;BME280_pressure;Samples;Min_cycle;Max_cycle;Signal;HPM_P1;HPM_P2
2021/06/24 00:01:24;;;;;;;5.13;2.40;;;;;;;14.53;96.31;95760.56;5090537;28;20040;-78
2021/06/24 00:03:49;;;;;;;6.25;2.70;;;;;;;14.49;97.25;95752.41;5084403;28;20056;-77
2021/06/24 00:06:15;;;;;;;7.90;2.90;;;;;;;14.55;96.61;95737.22;5072557;28;20036;-78
2021/06/24 00:08:41;;;;;;;6.68;3.00;;;;;;;14.42;97.19;95737.97;5096274;28;20128;-78
2021/06/24 00:11:09;;;;;;;5.85;2.90;;;;;;;14.37;98.23;95734.31;5079025;28;20099;-77
2021/06/24 00:13:35;;;;;;;10.57;3.17;;;;;;;14.33;98.73;95722.72;5086135;28;20037;-78
2021/06/24 00:16:01;;;;;;;7.80;3.42;;;;;;;14.24;98.66;95727.13;5096904;28;20064;-78
2021/06/24 00:18:26;;;;;;;8.38;3.78;;;;;;;14.27;99.45;95720.47;5085857;28;20048;-78
2021/06/24 00:20:52;;;;;;;6.95;3.50;;;;;;;14.22;99.08;95739.81;5081041;28;20127;-77
2021/06/24 00:23:18;;;;;;;6.45;3.70;;;;;;;14.21;99.99;95744.34;5095705;28;20046;-78
2021/06/24 00:25:44;;;;;;;6.18;3.70;;;;;;;14.16;99.50;95735.69;5096810;28;20066;-78
2021/06/24 00:28:16;;;;;;;7.93;3.83;;;;;;;14.12;99.84;95750.56;5110233;28;20043;-77
2021/06/24 00:30:44;;;;;;;9.00;3.80;;;;;;;14.16;99.28;95743.63;5085823;28;20040;-78
2021/06/24 00:33:10;;;;;;;8.68;3.63;;;;;;;14.16;98.76;95751.56;5099679;28;20040;-78
2021/06/24 00:35:35;;;;;;;7.53;3.90;;;;;;;14.10;99.85;95747.44;5073835;28;20044;-78
2021/06/24 00:38:01;;;;;;;9.15;3.83;;;;;;;14.10;99.73;95752.72;5080241;28;20041;-78
2021/06/24 00:40:27;;;;;;;10.27;4.38;;;;;;;14.04;99.86;95755.44;5080955;28;20048;-78
2021/06/24 00:42:54;;;;;;;11.05;4.43;;;;;;;14.07;99.68;95753.28;5079814;28;20106;-79
2021/06/24 00:45:19;;;;;;;6.85;4.28;;;;;;;14.02;99.63;95752.28;5082496;28;20503;-78
2021/06/24 00:47:45;;;;;;;7.50;4.40;;;;;;;13.99;99.66;95750.22;5087877;28;20057;-78
2021/06/24 00:50:12;;;;;;;9.13;5.45;;;;;;;14.02;99.58;95756.78;5076088;28;20040;-77
2021/06/24 00:52:38;;;;;;;9.05;4.63;;;;;;;14.03;99.35;95759.13;5085010;28;20114;-77
2021/06/24 00:55:05;;;;;;;7.65;4.22;;;;;;;14.01;99.58;95761.28;5104876;28;20505;-78
2021/06/24 00:57:32;;;;;;;9.00;4.50;;;;;;;14.00;99.53;95754.41;5082905;28;20061;-78
2021/06/24 00:59:58;;;;;;;6.55;3.70;;;;;;;13.95;99.43;95754.50;5080310;28;20112;-77
2021/06/24 01:02:24;;;;;;;7.05;3.58;;;;;;;13.93;99.12;95753.97;5081423;28;20519;-78
2021/06/24 01:04:50;;;;;;;7.65;3.67;;;;;;;13.88;99.36;95754.06;5086948;28;20482;-79
2021/06/24 01:07:16;;;;;;;8.98;3.45;;;;;;;13.83;98.93;95744.34;5086193;28;20038;-77
2021/06/24 01:09:42;;;;;;;5.45;3.85;;;;;;;13.83;99.25;95759.41;5099053;28;20405;-78
2021/06/24 01:12:09;;;;;;;7.13;3.08;;;;;;;13.82;98.79;95758.63;5080366;28;20032;-78
2021/06/24 01:14:35;;;;;;;6.03;3.70;;;;;;;13.76;99.08;95764.25;5078200;28;20044;-79
2021/06/24 01:17:01;;;;;;;7.20;3.30;;;;;;;13.69;98.88;95754.81;5066396;28;20032;-76
2021/06/24 01:19:27;;;;;;;6.65;3.40;;;;;;;13.69;99.48;95749.53;5075530;28;20059;-77
2021/06/24 01:21:52;;;;;;;8.43;3.30;;;;;;;13.71;99.09;95751.09;5091264;28;20056;-79
2021/06/24 01:24:19;;;;;;;7.72;3.30;;;;;;;13.63;99.14;95755.94;5078602;28;20068;-78
2021/06/24 01:26:46;;;;;;;5.43;3.17;;;;;;;13.63;99.22;95755.94;5091551;28;20097;-79
2021/06/24 01:29:13;;;;;;;5.45;2.92;;;;;;;13.59;99.08;95754.94;5076522;28;20036;-77
2021/06/24 01:31:38;;;;;;;4.35;2.80;;;;;;;13.60;98.98;95745.91;5075836;28;20127;-78
2021/06/24 01:34:11;;;;;;;4.88;2.90;;;;;;;13.52;99.51;95746.56;5077043;28;20043;-79
2021/06/24 01:36:37;;;;;;;8.50;3.17;;;;;;;13.51;99.11;95742.31;5076794;28;20055;-79
2021/06/24 01:39:05;;;;;;;4.68;3.15;;;;;;;13.49;99.46;95749.78;5073410;28;20418;-78
2021/06/24 01:41:31;;;;;;;5.82;3.53;;;;;;;13.45;99.48;95743.47;5074074;28;20065;-78
2021/06/24 01:43:56;;;;;;;5.90;3.05;;;;;;;13.45;99.51;95738.94;5069396;28;20033;-78
2021/06/24 01:46:22;;;;;;;7.13;3.20;;;;;;;13.41;99.66;95731.88;5069165;28;20045;-79
2021/06/24 01:48:48;;;;;;;9.25;3.55;;;;;;;13.44;99.18;95729.44;5079479;28;20570;-77
2021/06/24 01:51:13;;;;;;;7.00;3.22;;;;;;;13.40;99.52;95725.00;5078549;28;20040;-78
2021/06/24 01:53:39;;;;;;;6.32;3.17;;;;;;;13.40;99.29;95725.00;5084802;28;20051;-78
2021/06/24 01:56:05;;;;;;;6.28;3.08;;;;;;;13.38;99.38;95732.44;5094413;28;20040;-77
2021/06/24 01:58:30;;;;;;;5.32;3.20;;;;;;;13.36;99.57;95721.34;5066952;28;20421;-78
2021/06/24 02:00:58;;;;;;;6.60;3.17;;;;;;;13.30;99.62;95721.38;5081100;28;20041;-79
2021/06/24 02:03:24;;;;;;;6.72;3.53;;;;;;;13.25;99.95;95724.06;5089968;28;20040;-78
2021/06/24 02:05:53;;;;;;;6.07;3.60;;;;;;;13.22;99.89;95724.63;5078211;28;20041;-78
2021/06/24 02:08:23;;;;;;;6.63;3.75;;;;;;;13.25;100.00;95718.78;5076466;28;20036;-79
2021/06/24 02:10:49;;;;;;;5.70;3.40;;;;;;;13.17;100.00;95706.19;5082507;28;20098;-79
2021/06/24 02:13:16;;;;;;;8.05;3.35;;;;;;;13.10;100.00;95700.44;5078170;28;20117;-78
2021/06/24 02:15:42;;;;;;;6.72;3.83;;;;;;;13.11;100.00;95707.31;5086600;28;20048;-78
2021/06/24 02:18:08;;;;;;;5.95;3.70;;;;;;;13.10;100.00;95695.16;5082950;28;20066;-78
2021/06/24 02:20:33;;;;;;;7.68;3.58;;;;;;;13.08;100.00;95692.03;5082967;28;20067;-78
2021/06/24 02:22:59;;;;;;;7.80;4.22;;;;;;;13.04;100.00;95697.06;5096524;28;20054;-77
2021/06/24 02:25:27;;;;;;;7.63;3.72;;;;;;;12.99;100.00;95689.97;5068553;28;20043;-79
2021/06/24 02:27:53;;;;;;;8.80;3.85;;;;;;;13.01;100.00;95705.56;5069406;28;20044;-79
2021/06/24 02:30:19;;;;;;;5.88;3.45;;;;;;;12.96;100.00;95709.03;5077338;28;20520;-79
2021/06/24 02:32:45;;;;;;;7.38;4.00;;;;;;;12.98;100.00;95714.81;5088429;28;20036;-79
2021/06/24 02:35:13;;;;;;;7.00;3.30;;;;;;;13.04;100.00;95717.41;5060994;28;20047;-79
2021/06/24 02:37:41;;;;;;;5.15;3.28;;;;;;;13.04;100.00;95709.50;5070238;28;20044;-78
2021/06/24 02:40:09;;;;;;;7.18;3.72;;;;;;;13.07;100.00;95714.22;5077883;28;20089;-79
2021/06/24 02:42:34;;;;;;;6.20;3.33;;;;;;;13.05;100.00;95708.44;5094870;28;20037;-78
2021/06/24 02:45:00;;;;;;;4.68;3.05;;;;;;;13.05;100.00;95703.16;5074976;28;20040;-78
2021/06/24 02:47:25;;;;;;;6.97;3.72;;;;;;;13.01;100.00;95697.63;5082029;28;20093;-78
2021/06/24 02:49:52;;;;;;;5.05;3.33;;;;;;;13.02;100.00;95698.44;5078779;28;20460;-80
2021/06/24 02:52:17;;;;;;;7.18;3.53;;;;;;;12.94;100.00;95692.69;5082386;28;20067;-79
2021/06/24 02:54:43;;;;;;;7.43;3.65;;;;;;;12.92;100.00;95694.81;5076348;28;20521;-77
2021/06/24 02:57:09;;;;;;;9.00;3.42;;;;;;;12.93;100.00;95693.75;5091000;28;20409;-78
2021/06/24 02:59:34;;;;;;;5.82;3.28;;;;;;;12.99;100.00;95684.69;5075622;28;20041;-79
2021/06/24 03:02:00;;;;;;;5.50;3.25;;;;;;;13.00;100.00;95683.66;5069942;28;20043;-79
2021/06/24 03:04:26;;;;;;;7.60;3.50;;;;;;;12.92;100.00;95694.81;5066976;28;20612;-78
2021/06/24 03:06:53;;;;;;;5.72;3.25;;;;;;;12.85;100.00;95694.34;5075345;28;20558;-79
2021/06/24 03:09:20;;;;;;;5.40;3.10;;;;;;;12.83;100.00;95696.50;5070015;28;20045;-78
2021/06/24 03:11:46;;;;;;;12.27;4.60;;;;;;;12.90;100.00;95689.03;5085260;28;20047;-79
2021/06/24 03:14:12;;;;;;;8.10;3.35;;;;;;;12.80;100.00;95691.75;5073078;28;20068;-79
2021/06/24 03:16:38;;;;;;;6.57;3.40;;;;;;;12.78;100.00;95688.59;5077865;28;20094;-79
2021/06/24 03:19:05;;;;;;;4.72;3.17;;;;;;;12.73;100.00;95691.28;5082168;28;20056;-78
2021/06/24 03:21:30;;;;;;;7.05;3.22;;;;;;;12.69;100.00;95695.56;5081725;28;20071;-79
2021/06/24 03:23:56;;;;;;;5.63;3.40;;;;;;;12.61;100.00;95684.53;5078610;28;20107;-79
2021/06/24 03:26:22;;;;;;;10.13;3.53;;;;;;;12.60;100.00;95688.25;5073305;28;20036;-79
2021/06/24 03:28:47;;;;;;;6.03;3.58;;;;;;;12.61;100.00;95679.25;5056088;28;20071;-79
2021/06/24 03:31:13;;;;;;;8.05;3.67;;;;;;;12.56;100.00;95674.03;5086414;28;20051;-79
2021/06/24 03:33:38;;;;;;;5.88;3.25;;;;;;;12.53;100.00;95682.50;5078369;28;20036;-78
2021/06/24 03:36:04;;;;;;;6.55;3.58;;;;;;;12.51;100.00;95676.69;5095277;28;20047;-78
2021/06/24 03:38:30;;;;;;;6.22;3.15;;;;;;;12.43;100.00;95677.31;5087986;28;20547;-78
2021/06/24 03:40:56;;;;;;;6.00;3.40;;;;;;;12.42;100.00;95675.72;5081037;28;20036;-78
2021/06/24 03:43:21;;;;;;;6.30;4.07;;;;;;;12.41;100.00;95674.13;5091375;28;20044;-79
2021/06/24 03:45:47;;;;;;;6.35;3.50;;;;;;;12.40;100.00;95672.59;5079020;28;20382;-79
2021/06/24 03:48:12;;;;;;;6.90;3.70;;;;;;;12.35;100.00;95664.69;5074445;28;20045;-79
2021/06/24 03:50:38;;;;;;;5.13;3.38;;;;;;;12.35;100.00;95669.97;5076568;28;20044;-79
2021/06/24 03:53:05;;;;;;;7.10;3.50;;;;;;;12.31;100.00;95669.72;5081702;28;20045;-79
2021/06/24 03:55:38;;;;;;;6.93;3.58;;;;;;;12.36;100.00;95666.28;5074365;28;20036;-79
2021/06/24 03:58:05;;;;;;;9.57;3.83;;;;;;;12.35;100.00;95662.06;5087771;28;20040;-79
2021/06/24 04:00:35;;;;;;;10.90;4.55;;;;;;;12.38;100.00;95669.41;5079617;28;20094;-79
2021/06/24 04:03:01;;;;;;;5.90;3.25;;;;;;;12.39;100.00;95669.13;5074554;28;20071;-79
2021/06/24 04:05:30;;;;;;;6.35;3.58;;;;;;;12.43;100.00;95666.75;5070705;28;20116;-79
2021/06/24 04:07:56;;;;;;;6.25;3.78;;;;;;;12.48;100.00;95664.06;5076872;28;20040;-78
2021/06/24 04:10:22;;;;;;;7.70;4.32;;;;;;;12.52;100.00;95649.25;5067759;28;20055;-79
2021/06/24 04:12:47;;;;;;;8.35;4.63;;;;;;;12.59;100.00;95660.25;5063369;28;20474;-79
2021/06/24 04:15:13;;;;;;;9.85;4.22;;;;;;;12.67;100.00;95660.72;5087596;28;20162;-78
2021/06/24 04:17:39;;;;;;;10.32;4.60;;;;;;;12.64;100.00;95657.59;5060700;28;20036;-80
2021/06/24 04:20:05;;;;;;;7.32;4.40;;;;;;;12.68;100.00;95664.94;5078431;28;20051;-78
2021/06/24 04:22:31;;;;;;;9.05;4.53;;;;;;;12.72;100.00;95658.03;5076878;28;20043;-79
2021/06/24 04:24:57;;;;;;;7.00;4.22;;;;;;;12.79;100.00;95669.06;5075673;28;20042;-80
2021/06/24 04:27:22;;;;;;;7.72;4.57;;;;;;;12.81;100.00;95666.91;5076994;28;20386;-78
2021/06/24 04:29:48;;;;;;;10.70;5.40;;;;;;;12.90;100.00;95662.63;5063780;28;20048;-79
2021/06/24 04:32:13;;;;;;;10.18;5.22;;;;;;;12.97;100.00;95657.78;5072713;28;20032;-79
2021/06/24 04:34:39;;;;;;;12.32;5.05;;;;;;;13.03;100.00;95660.34;5092571;28;20051;-79
2021/06/24 04:37:05;;;;;;;10.10;5.07;;;;;;;13.09;100.00;95667.19;5070507;28;20069;-79
2021/06/24 04:39:30;;;;;;;11.10;4.80;;;;;;;13.04;100.00;95667.22;5082324;28;20052;-78
2021/06/24 04:41:55;;;;;;;7.93;5.00;;;;;;;13.04;100.00;95660.06;5076515;28;20070;-80
2021/06/24 04:44:21;;;;;;;11.77;5.55;;;;;;;13.17;100.00;95663.91;5066119;28;20032;-79
2021/06/24 04:46:47;;;;;;;11.02;5.38;;;;;;;13.24;100.00;95669.63;5078794;28;20505;-77
2021/06/24 04:49:12;;;;;;;12.52;6.35;;;;;;;13.33;100.00;95667.97;5072705;28;20055;-80
2021/06/24 04:51:38;;;;;;;7.60;5.30;;;;;;;13.31;100.00;95662.16;5087346;28;20043;-79
2021/06/24 04:54:04;;;;;;;7.85;4.65;;;;;;;13.28;100.00;95660.06;5073735;28;20043;-80
2021/06/24 04:56:29;;;;;;;7.18;4.70;;;;;;;13.36;100.00;95657.91;5071312;28;20405;-79
2021/06/24 04:58:55;;;;;;;5.78;3.95;;;;;;;13.40;99.33;95646.47;5069018;28;20426;-81
2021/06/24 05:01:20;;;;;;;7.35;4.82;;;;;;;13.49;100.00;95654.59;5065902;28;20557;-80
2021/06/24 05:03:45;;;;;;;7.68;4.57;;;;;;;13.51;99.06;95653.22;5081196;28;20115;-79
2021/06/24 05:06:12;;;;;;;7.78;4.80;;;;;;;13.54;100.00;95648.44;5082193;28;20033;-80
2021/06/24 05:08:38;;;;;;;11.57;4.43;;;;;;;13.54;99.59;95651.88;5065945;28;20040;-80
2021/06/24 05:11:04;;;;;;;6.43;3.33;;;;;;;13.57;99.24;95655.81;5065765;28;20060;-80
2021/06/24 05:13:31;;;;;;;6.40;3.55;;;;;;;13.56;98.21;95655.03;5070211;28;21606;-80
2021/06/24 05:15:56;;;;;;;4.18;3.03;;;;;;;13.62;97.82;95667.09;5088341;28;20044;-80
2021/06/24 05:18:22;;;;;;;5.75;3.72;;;;;;;13.62;98.15;95653.88;5090289;28;20456;-79
2021/06/24 05:20:48;;;;;;;7.93;3.83;;;;;;;13.68;99.33;95658.03;5090602;28;20040;-79
2021/06/24 05:23:15;;;;;;;7.05;4.40;;;;;;;13.69;100.00;95654.31;5072236;28;20040;-80
2021/06/24 05:25:42;;;;;;;5.70;3.92;;;;;;;13.66;99.83;95651.44;5072104;28;20100;-80
2021/06/24 05:28:08;;;;;;;8.52;3.88;;;;;;;13.68;99.28;95655.38;5073880;28;20048;-80
2021/06/24 05:30:35;;;;;;;7.88;3.70;;;;;;;13.74;99.21;95650.81;5072690;28;20071;-79
2021/06/24 05:33:00;;;;;;;6.15;3.63;;;;;;;13.80;99.02;95648.88;5072107;28;20047;-79
2021/06/24 05:35:27;;;;;;;8.82;4.43;;;;;;;13.79;100.00;95647.28;5088640;28;20032;-80
2021/06/24 05:37:52;;;;;;;6.05;3.70;;;;;;;13.86;99.74;95647.72;5074158;28;20455;-79
2021/06/24 05:40:18;;;;;;;5.43;3.88;;;;;;;14.01;99.92;95650.16;5076390;28;20047;-80
2021/06/24 05:42:44;;;;;;;6.45;3.97;;;;;;;14.02;100.00;95657.03;5072550;28;20414;-81
2021/06/24 05:45:10;;;;;;;7.88;4.05;;;;;;;14.07;100.00;95650.09;5078117;28;20062;-80
2021/06/24 05:47:35;;;;;;;8.13;4.05;;;;;;;14.19;99.99;95645.13;5091246;28;20063;-81
2021/06/24 05:50:02;;;;;;;6.05;3.63;;;;;;;14.25;97.77;95649.28;5078861;28;20486;-80
2021/06/24 05:52:28;;;;;;;6.93;3.78;;;;;;;14.30;97.81;95656.34;5090166;28;20123;-80
2021/06/24 05:54:53;;;;;;;5.63;3.17;;;;;;;14.29;96.20;95655.56;5082610;28;20500;-81
2021/06/24 05:57:19;;;;;;;4.82;3.20;;;;;;;14.43;95.35;95654.81;5074903;28;20541;-80
2021/06/24 05:59:44;;;;;;;5.97;3.38;;;;;;;14.56;94.97;95648.78;5073419;28;20036;-80
2021/06/24 06:02:10;;;;;;;7.22;3.20;;;;;;;14.67;93.81;95655.50;5075122;28;20137;-81
2021/06/24 06:04:35;;;;;;;11.45;3.70;;;;;;;14.60;97.45;95649.75;5070533;28;20448;-80
2021/06/24 06:07:01;;;;;;;10.95;3.40;;;;;;;14.62;95.17;95652.94;5088096;28;20044;-80
2021/06/24 06:09:28;;;;;;;7.68;3.20;;;;;;;14.64;94.19;95656.09;5074887;28;20052;-81
2021/06/24 06:11:54;;;;;;;4.40;2.80;;;;;;;14.60;91.52;95641.81;5072831;28;20505;-79
2021/06/24 06:14:20;;;;;;;12.38;3.83;;;;;;;14.51;95.28;95643.56;5072930;28;20101;-80
2021/06/24 06:16:45;;;;;;;5.53;3.90;;;;;;;14.49;96.39;95637.78;5080611;28;20047;-80
2021/06/24 06:19:12;;;;;;;7.30;2.90;;;;;;;14.55;92.77;95636.59;5073996;28;20506;-80
2021/06/24 06:21:38;;;;;;;5.35;3.40;;;;;;;14.66;92.19;95640.69;5075398;28;20039;-80
2021/06/24 06:24:03;;;;;;;5.07;3.42;;;;;;;14.62;93.02;95637.03;5073898;28;20040;-80
2021/06/24 06:26:29;;;;;;;6.88;3.70;;;;;;;14.64;94.53;95640.19;5083445;28;20040;-80
2021/06/24 06:28:55;;;;;;;5.35;3.20;;;;;;;14.75;88.90;95634.72;5068772;28;20069;-80
2021/06/24 06:31:22;;;;;;;4.97;3.50;;;;;;;14.80;91.58;95642.59;5070686;28;20111;-81
2021/06/24 06:33:48;;;;;;;6.43;2.97;;;;;;;14.76;90.47;95631.00;5070566;28;20382;-80
2021/06/24 06:36:14;;;;;;;7.80;3.45;;;;;;;14.66;93.80;95627.44;5075356;28;20036;-80
2021/06/24 06:38:39;;;;;;;7.40;3.28;;;;;;;14.93;89.69;95636.50;5076007;28;20040;-80
2021/06/24 06:41:05;;;;;;;5.63;3.10;;;;;;;14.93;90.06;95625.91;5077572;28;20036;-80
2021/06/24 06:43:30;;;;;;;8.75;3.55;;;;;;;15.02;89.09;95624.13;5074500;28;20106;-80
2021/06/24 06:45:56;;;;;;;6.05;3.60;;;;;;;14.81;95.29;95622.94;5083723;28;20490;-80
2021/06/24 06:48:22;;;;;;;5.20;3.17;;;;;;;14.89;89.85;95622.25;5074031;28;20486;-80
2021/06/24 06:50:48;;;;;;;5.47;3.25;;;;;;;14.85;90.53;95624.69;5074180;28;20040;-81
2021/06/24 06:53:13;;;;;;;5.22;3.17;;;;;;;15.19;89.44;95628.06;5084729;28;20521;-79
2021/06/24 06:55:39;;;;;;;5.32;3.30;;;;;;;15.23;88.49;95629.03;5073920;28;20207;-80
2021/06/24 06:58:05;;;;;;;7.60;3.88;;;;;;;15.14;91.29;95636.09;5067656;28;20044;-81
2021/06/24 07:00:33;;;;;;;6.40;3.00;;;;;;;15.20;89.18;95634.91;5072141;28;20525;-80
2021/06/24 07:02:59;;;;;;;9.68;3.67;;;;;;;15.28;88.50;95636.88;5073681;28;20040;-79
2021/06/24 07:05:25;;;;;;;11.02;3.60;;;;;;;15.36;90.57;95633.53;5073547;28;20048;-80
2021/06/24 07:07:51;;;;;;;7.28;3.42;;;;;;;15.68;86.09;95633.69;5057178;28;20414;-79
2021/06/24 07:10:17;;;;;;;9.38;3.97;;;;;;;15.56;92.27;95631.56;5074600;28;20418;-80
2021/06/24 07:12:43;;;;;;;4.57;3.00;;;;;;;15.51;84.97;95639.59;5081208;28;20040;-80
2021/06/24 07:15:10;;;;;;;5.78;3.22;;;;;;;15.56;90.21;95636.88;5076108;28;20070;-79
2021/06/24 07:17:36;;;;;;;6.30;3.63;;;;;;;15.75;87.58;95634.06;5074961;28;20505;-80
2021/06/24 07:20:03;;;;;;;8.70;4.07;;;;;;;15.68;92.86;95639.75;5081391;28;20039;-79
2021/06/24 07:22:29;;;;;;;7.65;3.30;;;;;;;15.70;89.31;95637.63;5081566;28;20032;-81
2021/06/24 07:24:54;;;;;;;6.60;3.45;;;;;;;15.77;88.45;95643.31;5093656;28;20040;-78
2021/06/24 07:27:20;;;;;;;4.90;3.60;;;;;;;15.73;87.42;95637.00;5077739;28;20498;-79
2021/06/24 07:29:45;;;;;;;5.63;3.53;;;;;;;15.74;89.63;95633.25;5077713;28;20074;-78
2021/06/24 07:32:11;;;;;;;6.95;3.67;;;;;;;15.77;85.57;95638.00;5098289;28;20040;-76
2021/06/24 07:34:36;;;;;;;11.02;4.22;;;;;;;15.91;87.80;95627.34;5077232;28;20040;-75
2021/06/24 07:37:02;;;;;;;7.10;4.00;;;;;;;16.07;85.83;95635.75;5076472;28;20680;-80
2021/06/24 07:39:28;;;;;;;9.18;3.60;;;;;;;16.20;85.79;95633.34;5076579;28;20036;-80
2021/06/24 07:41:53;;;;;;;7.32;3.60;;;;;;;16.28;84.78;95640.59;5080316;28;20582;-78
2021/06/24 07:44:19;;;;;;;9.82;3.50;;;;;;;16.43;85.87;95637.56;5088638;28;20036;-79
2021/06/24 07:46:45;;;;;;;7.30;3.67;;;;;;;16.48;86.24;95638.50;5087501;28;20105;-80
2021/06/24 07:49:11;;;;;;;6.47;3.80;;;;;;;16.37;82.90;95638.00;5075619;28;20047;-82
2021/06/24 07:51:36;;;;;;;7.22;3.50;;;;;;;16.47;85.06;95642.28;5074595;28;20055;-78
2021/06/24 07:54:02;;;;;;;7.38;3.78;;;;;;;16.47;83.33;95632.41;5075574;28;20401;-81
2021/06/24 07:56:28;;;;;;;8.52;3.83;;;;;;;16.48;84.58;95633.19;5073236;28;20056;-77
2021/06/24 07:58:53;;;;;;;5.40;3.67;;;;;;;16.55;84.90;95628.22;5090294;28;20033;-79
2021/06/24 08:01:20;;;;;;;8.43;3.90;;;;;;;16.57;83.37;95631.38;5078730;28;20040;-79
2021/06/24 08:03:45;;;;;;;6.38;3.90;;;;;;;16.58;83.91;95630.31;5074334;28;20115;-80
2021/06/24 08:06:11;;;;;;;7.25;3.80;;;;;;;16.62;83.31;95636.56;5074975;28;20450;-80
2021/06/24 08:08:37;;;;;;;12.18;4.10;;;;;;;16.75;82.02;95626.94;5078995;28;20045;-78
2021/06/24 08:11:03;;;;;;;6.07;3.85;;;;;;;16.70;80.75;95630.50;5078166;28;20048;-79
2021/06/24 08:13:29;;;;;;;5.32;3.22;;;;;;;16.56;83.00;95629.81;5073491;28;20040;-79
2021/06/24 08:15:57;;;;;;;6.32;3.80;;;;;;;16.55;84.38;95633.53;5076948;28;20165;-80
2021/06/24 08:18:23;;;;;;;7.20;3.80;;;;;;;16.58;82.58;95628.41;5074752;28;20056;-80
2021/06/24 08:20:50;;;;;;;10.10;3.97;;;;;;;16.59;79.99;95629.19;5072981;28;20468;-80
2021/06/24 08:23:17;;;;;;;7.43;3.72;;;;;;;16.58;82.21;95627.66;5075251;28;20041;-79
2021/06/24 08:25:43;;;;;;;7.10;4.10;;;;;;;16.55;86.68;95629.03;5068940;28;20048;-79
2021/06/24 08:28:10;;;;;;;6.15;2.80;;;;;;;16.64;81.81;95621.09;5073952;28;20105;-81
2021/06/24 08:30:39;;;;;;;7.28;3.60;;;;;;;16.85;79.35;95620.56;5060474;28;20045;-80
2021/06/24 08:33:04;;;;;;;7.13;3.90;;;;;;;16.82;80.99;95611.31;5054926;28;20116;-79
2021/06/24 08:35:30;;;;;;;6.68;3.55;;;;;;;16.76;78.96;95613.34;5072585;28;20119;-79
2021/06/24 08:37:56;;;;;;;5.53;3.60;;;;;;;16.88;79.72;95606.69;5073716;28;20040;-80
2021/06/24 08:40:23;;;;;;;7.32;3.92;;;;;;;16.97;80.18;95615.50;5075808;28;20036;-80
2021/06/24 08:42:48;;;;;;;6.43;3.70;;;;;;;16.97;81.93;95618.16;5066516;28;20041;-77
2021/06/24 08:45:15;;;;;;;8.88;3.50;;;;;;;17.00;80.06;95617.53;5071646;28;20052;-79
2021/06/24 08:47:44;;;;;;;6.32;3.60;;;;;;;17.24;77.77;95616.34;5070256;28;20041;-77
2021/06/24 08:50:11;;;;;;;6.00;3.40;;;;;;;17.36;79.91;95619.19;5071273;28;20341;-77
2021/06/24 08:52:38;;;;;;;5.38;3.55;;;;;;;17.35;77.02;95606.22;5071937;28;20047;-78
2021/06/24 08:55:04;;;;;;;6.47;3.47;;;;;;;17.64;77.31;95608.28;5074252;28;20037;-78
2021/06/24 08:57:30;;;;;;;5.85;3.50;;;;;;;17.70;75.83;95615.03;5063642;28;20047;-80
2021/06/24 08:59:59;;;;;;;6.15;3.67;;;;;;;17.65;76.94;95623.16;5069778;28;20100;-80
2021/06/24 09:03:12;;;;;;;7.35;3.65;;;;;;;17.78;74.93;95616.91;5071424;28;20047;-78
2021/06/24 09:06:07;;;;;;;7.00;3.70;;;;;;;17.71;79.03;95618.47;5051946;28;20060;-76
2021/06/24 09:08:45;;;;;;;9.02;4.10;;;;;;;17.78;77.98;95610.81;5045753;28;20056;-82
2021/06/24 09:11:17;;;;;;;5.95;3.83;;;;;;;17.89;78.62;95621.94;5053586;28;20049;-83
2021/06/24 09:13:45;;;;;;;7.07;3.90;;;;;;;17.93;78.93;95609.56;5071091;28;20094;-79
2021/06/24 09:16:25;;;;;;;9.27;3.95;;;;;;;18.03;74.09;95603.94;5085308;28;20079;-82
2021/06/24 09:18:51;;;;;;;5.78;3.53;;;;;;;17.84;74.77;95607.69;5071358;28;20040;-81
2021/06/24 09:21:25;;;;;;;6.70;3.63;;;;;;;17.81;80.96;95608.31;5071403;28;20563;-80
2021/06/24 09:23:52;;;;;;;6.38;3.90;;;;;;;18.09;75.76;95608.00;5072399;28;21419;-80
2021/06/24 09:26:20;;;;;;;7.35;4.07;;;;;;;18.10;75.45;95612.25;5061263;28;20041;-77
2021/06/24 09:28:53;;;;;;;6.75;3.88;;;;;;;18.15;73.89;95608.63;5072185;28;20074;-78
2021/06/24 09:31:30;;;;;;;7.78;3.72;;;;;;;18.13;75.58;95603.63;5069251;28;20520;-82
2021/06/24 09:34:05;;;;;;;9.35;3.70;;;;;;;18.31;73.38;95603.59;5073336;28;20040;-79
2021/06/24 09:36:42;;;;;;;8.13;4.10;;;;;;;18.47;72.69;95601.97;5070719;28;20045;-82
2021/06/24 09:39:44;;;;;;;8.68;3.70;;;;;;;18.55;75.27;95607.59;5071454;28;20040;-80
2021/06/24 09:42:12;;;;;;;9.55;4.07;;;;;;;18.87;74.55;95609.72;5071227;28;20090;-79
2021/06/24 09:44:40;;;;;;;6.35;4.20;;;;;;;18.89;72.73;95605.97;5069603;28;20090;-79
2021/06/24 09:47:19;;;;;;;8.52;4.28;;;;;;;18.88;75.27;95605.19;5067883;28;20440;-80
2021/06/24 09:50:07;;;;;;;9.00;3.95;;;;;;;19.03;70.90;95612.63;5070852;28;20043;-80
2021/06/24 09:52:34;;;;;;;6.68;3.88;;;;;;;19.07;78.21;95607.44;5072135;28;20406;-82
2021/06/24 09:55:08;;;;;;;9.50;4.10;;;;;;;19.32;74.82;95608.44;5070897;28;20474;-84
2021/06/24 09:57:34;;;;;;;7.18;3.72;;;;;;;19.60;75.05;95601.81;5058350;28;20459;-81
2021/06/24 10:00:19;;;;;;;6.35;4.07;;;;;;;19.56;71.87;95594.44;5069493;28;20119;-79
2021/06/24 10:03:07;;;;;;;7.60;4.10;;;;;;;19.55;70.31;95600.91;5058447;28;20047;-82
2021/06/24 10:05:33;;;;;;;7.50;3.92;;;;;;;19.90;70.17;95600.66;5065253;28;20046;-80
2021/06/24 10:07:59;;;;;;;8.48;4.28;;;;;;;20.15;68.01;95598.09;5072705;28;20040;-79
2021/06/24 10:10:25;;;;;;;8.10;4.45;;;;;;;20.17;68.43;95598.56;5069597;28;20456;-80
2021/06/24 10:12:50;;;;;;;8.35;4.22;;;;;;;20.65;66.91;95590.97;5078499;28;20086;-82
2021/06/24 10:15:17;;;;;;;10.27;4.30;;;;;;;20.84;67.99;95598.50;5075256;28;20091;-78
2021/06/24 10:17:44;;;;;;;6.68;3.72;;;;;;;20.72;65.27;95590.47;5080629;28;20126;-81
2021/06/24 10:20:11;;;;;;;8.35;4.30;;;;;;;20.81;65.88;95599.16;5078949;28;20657;-82
2021/06/24 10:22:39;;;;;;;6.80;3.80;;;;;;;21.33;66.03;95607.66;5083577;28;20078;-82
2021/06/24 10:25:11;;;;;;;7.97;4.20;;;;;;;20.97;65.51;95603.88;5105301;28;20047;-82
2021/06/24 10:27:42;;;;;;;7.82;4.50;;;;;;;21.27;62.57;95599.84;5093234;28;20037;-83
2021/06/24 10:30:11;;;;;;;5.95;3.80;;;;;;;21.84;61.03;95610.72;5106743;28;20045;-82
2021/06/24 10:32:37;;;;;;;7.97;4.20;;;;;;;21.97;61.09;95609.53;5090250;28;20060;-82
2021/06/24 10:35:06;;;;;;;11.95;3.78;;;;;;;21.41;64.98;95626.25;5091532;28;20108;-79
2021/06/24 10:37:32;;;;;;;7.28;4.40;;;;;;;20.96;62.95;95621.03;5065154;28;20430;-80
2021/06/24 10:40:00;;;;;;;10.50;4.47;;;;;;;21.11;65.14;95618.47;5058791;28;20123;-77
2021/06/24 10:42:33;;;;;;;8.32;4.65;;;;;;;21.92;60.97;95623.19;5076274;28;20119;-80
2021/06/24 10:45:04;;;;;;;8.35;4.20;;;;;;;22.49;59.99;95615.94;5076001;28;20033;-81
2021/06/24 10:47:36;;;;;;;8.02;4.32;;;;;;;23.37;62.62;95610.78;5062315;28;20041;-79
2021/06/24 10:50:30;;;;;;;8.43;4.45;;;;;;;22.57;60.01;95603.50;5073876;28;20043;-80
2021/06/24 10:53:21;;;;;;;7.60;3.70;;;;;;;22.63;61.45;95596.75;5080801;28;20041;-79
2021/06/24 10:55:49;;;;;;;7.43;3.90;;;;;;;22.78;61.22;95586.38;5077930;28;20054;-78
2021/06/24 10:58:18;;;;;;;6.60;4.10;;;;;;;21.95;60.86;95595.72;5069179;28;20037;-79
2021/06/24 11:00:48;;;;;;;8.70;4.00;;;;;;;22.21;61.32;95597.19;5085681;28;20055;-80
2021/06/24 11:03:24;;;;;;;7.38;3.47;;;;;;;22.63;59.55;95602.13;5081228;28;20036;-81
2021/06/24 11:05:52;;;;;;;5.30;3.83;;;;;;;22.21;61.06;95607.91;5075717;28;20104;-79
2021/06/24 11:08:26;;;;;;;5.68;3.85;;;;;;;21.75;60.58;95626.13;5088403;28;20101;-80
2021/06/24 11:10:51;;;;;;;6.55;4.05;;;;;;;21.26;61.75;95633.09;5068738;28;20045;-79
2021/06/24 11:13:42;;;;;;;5.18;3.40;;;;;;;21.26;63.68;95635.75;5071916;28;20066;-83
2021/06/24 11:16:28;;;;;;;9.93;3.60;;;;;;;21.14;62.75;95625.03;5091482;28;20478;-80
2021/06/24 11:19:00;;;;;;;5.35;3.20;;;;;;;20.98;65.72;95634.84;5072678;28;20040;-79
2021/06/24 11:21:28;;;;;;;7.40;3.60;;;;;;;20.77;65.18;95644.53;5073303;28;20037;-79
2021/06/24 11:24:16;;;;;;;5.35;3.20;;;;;;;20.58;66.27;95634.28;5077269;28;20421;-80
2021/06/24 11:26:45;;;;;;;7.00;3.25;;;;;;;20.75;66.06;95632.59;5077294;28;20040;-78
2021/06/24 11:29:25;;;;;;;5.25;3.35;;;;;;;20.47;66.02;95619.78;5076759;28;20084;-78
2021/06/24 11:32:12;;;;;;;6.32;3.15;;;;;;;20.25;65.50;95620.94;5071257;28;20051;-80
2021/06/24 11:34:53;;;;;;;5.88;3.50;;;;;;;20.21;66.93;95631.53;5077212;28;20063;-79